sensor_id;sensor_type;location;lat;lon;timestamp;P1;durP1;ratioP1;P2;durP2;ratioP2
52043;SDS011;38053;53.100;6.078;2023-04-01T00:00:56;13.38;;;8.35;;
52043;SDS011;38053;53.100;6.078;2023-04-01T00:03:24;11.73;;;8.50;;
52043;SDS011;38053;53.100;6.078;2023-04-01T00:05:55;11.85;;;7.78;;
52043;SDS011;38053;53.100;6.078;2023-04-01T00:08:22;15.43;;;9.52;;
52043;SDS011;38053;53.100;6.078;2023-04-01T00:10:56;13.45;;;8.13;;
52043;SDS011;38053;53.100;6.078;2023-04-01T00:13:22;10.55;;;8.10;;
52043;SDS011;38053;53.100;6.078;2023-04-01T00:15:51;14.55;;;9.00;;
52043;SDS011;38053;53.100;6.078;2023-04-01T00:18:21;12.45;;;9.15;;
52043;SDS011;38053;53.100;6.078;2023-04-01T00:20:48;16.27;;;9.18;;
52043;SDS011;38053;53.100;6.078;2023-04-01T00:23:16;9.85;;;6.90;;
52043;SDS011;38053;53.100;6.078;2023-04-01T00:25:43;10.15;;;6.68;;
52043;SDS011;38053;53.100;6.078;2023-04-01T00:28:12;11.60;;;6.82;;
52043;SDS011;38053;53.100;6.078;2023-04-01T00:30:37;11.65;;;7.28;;
52043;SDS011;38053;53.100;6.078;2023-04-01T00:33:04;9.95;;;6.80;;
52043;SDS011;38053;53.100;6.078;2023-04-01T00:35:30;11.77;;;8.23;;
52043;SDS011;38053;53.100;6.078;2023-04-01T00:37:59;13.60;;;7.88;;
52043;SDS011;38053;53.100;6.078;2023-04-01T00:42:54;12.13;;;8.60;;
52043;SDS011;38053;53.100;6.078;2023-04-01T00:47:58;13.80;;;9.90;;
52043;SDS011;38053;53.100;6.078;2023-04-01T00:50:29;12.35;;;8.70;;
52043;SDS011;38053;53.100;6.078;2023-04-01T00:52:57;11.75;;;9.63;;
52043;SDS011;38053;53.100;6.078;2023-04-01T00:55:25;13.07;;;9.02;;
52043;SDS011;38053;53.100;6.078;2023-04-01T00:57:53;13.95;;;9.07;;
52043;SDS011;38053;53.100;6.078;2023-04-01T01:00:22;14.77;;;9.63;;
52043;SDS011;38053;53.100;6.078;2023-04-01T01:02:49;14.07;;;9.93;;
52043;SDS011;38053;53.100;6.078;2023-04-01T01:05:18;12.70;;;9.15;;
52043;SDS011;38053;53.100;6.078;2023-04-01T01:10:40;15.05;;;9.77;;
52043;SDS011;38053;53.100;6.078;2023-04-01T01:16:06;15.40;;;9.27;;
52043;SDS011;38053;53.100;6.078;2023-04-01T01:18:58;14.13;;;9.32;;
52043;SDS011;38053;53.100;6.078;2023-04-01T01:25:04;15.70;;;8.63;;
52043;SDS011;38053;53.100;6.078;2023-04-01T01:27:41;12.13;;;9.15;;
52043;SDS011;38053;53.100;6.078;2023-04-01T01:30:24;12.80;;;8.95;;
52043;SDS011;38053;53.100;6.078;2023-04-01T01:33:10;17.50;;;9.25;;
52043;SDS011;38053;53.100;6.078;2023-04-01T01:35:52;15.95;;;9.07;;
52043;SDS011;38053;53.100;6.078;2023-04-01T01:38:22;12.30;;;9.23;;
52043;SDS011;38053;53.100;6.078;2023-04-01T01:40:51;12.30;;;8.27;;
52043;SDS011;38053;53.100;6.078;2023-04-01T01:43:21;13.60;;;9.02;;
52043;SDS011;38053;53.100;6.078;2023-04-01T01:45:57;12.40;;;9.10;;
52043;SDS011;38053;53.100;6.078;2023-04-01T01:48:26;13.02;;;9.10;;
52043;SDS011;38053;53.100;6.078;2023-04-01T01:50:54;14.32;;;9.60;;
52043;SDS011;38053;53.100;6.078;2023-04-01T01:53:20;13.93;;;9.20;;
52043;SDS011;38053;53.100;6.078;2023-04-01T01:55:46;13.27;;;9.38;;
52043;SDS011;38053;53.100;6.078;2023-04-01T01:58:17;12.88;;;8.52;;
52043;SDS011;38053;53.100;6.078;2023-04-01T02:01:07;13.73;;;8.50;;
52043;SDS011;38053;53.100;6.078;2023-04-01T02:03:39;11.77;;;9.07;;
52043;SDS011;38053;53.100;6.078;2023-04-01T02:06:10;12.23;;;8.82;;
52043;SDS011;38053;53.100;6.078;2023-04-01T02:08:46;13.20;;;8.50;;
52043;SDS011;38053;53.100;6.078;2023-04-01T02:11:16;15.32;;;8.38;;
52043;SDS011;38053;53.100;6.078;2023-04-01T02:13:52;13.98;;;7.68;;
52043;SDS011;38053;53.100;6.078;2023-04-01T02:16:30;12.13;;;7.38;;
52043;SDS011;38053;53.100;6.078;2023-04-01T02:19:00;11.30;;;7.65;;
52043;SDS011;38053;53.100;6.078;2023-04-01T02:21:32;11.65;;;7.25;;
52043;SDS011;38053;53.100;6.078;2023-04-01T02:24:01;10.95;;;7.95;;
52043;SDS011;38053;53.100;6.078;2023-04-01T02:26:29;14.70;;;7.88;;
52043;SDS011;38053;53.100;6.078;2023-04-01T02:28:56;9.52;;;6.32;;
52043;SDS011;38053;53.100;6.078;2023-04-01T02:31:25;8.82;;;5.43;;
52043;SDS011;38053;53.100;6.078;2023-04-01T02:33:51;6.93;;;4.53;;
52043;SDS011;38053;53.100;6.078;2023-04-01T02:36:21;6.70;;;3.72;;
52043;SDS011;38053;53.100;6.078;2023-04-01T02:38:50;10.50;;;4.05;;
52043;SDS011;38053;53.100;6.078;2023-04-01T02:41:19;6.28;;;3.65;;
52043;SDS011;38053;53.100;6.078;2023-04-01T02:43:46;7.55;;;4.22;;
52043;SDS011;38053;53.100;6.078;2023-04-01T02:46:15;5.65;;;3.58;;
52043;SDS011;38053;53.100;6.078;2023-04-01T02:48:44;5.70;;;3.80;;
52043;SDS011;38053;53.100;6.078;2023-04-01T02:51:11;7.28;;;4.95;;
52043;SDS011;38053;53.100;6.078;2023-04-01T02:53:38;8.45;;;5.85;;
52043;SDS011;38053;53.100;6.078;2023-04-01T02:56:04;12.63;;;7.65;;
52043;SDS011;38053;53.100;6.078;2023-04-01T02:58:31;12.00;;;9.10;;
52043;SDS011;38053;53.100;6.078;2023-04-01T03:00:56;15.07;;;9.73;;
52043;SDS011;38053;53.100;6.078;2023-04-01T03:03:22;15.35;;;10.15;;
52043;SDS011;38053;53.100;6.078;2023-04-01T03:05:48;13.23;;;9.88;;
52043;SDS011;38053;53.100;6.078;2023-04-01T03:08:13;16.05;;;10.77;;
52043;SDS011;38053;53.100;6.078;2023-04-01T03:10:39;14.60;;;9.88;;
52043;SDS011;38053;53.100;6.078;2023-04-01T03:13:05;18.10;;;9.73;;
52043;SDS011;38053;53.100;6.078;2023-04-01T03:15:33;20.45;;;11.85;;
52043;SDS011;38053;53.100;6.078;2023-04-01T03:18:00;13.98;;;10.02;;
52043;SDS011;38053;53.100;6.078;2023-04-01T03:20:26;18.48;;;10.85;;
52043;SDS011;38053;53.100;6.078;2023-04-01T03:22:51;15.52;;;10.43;;
52043;SDS011;38053;53.100;6.078;2023-04-01T03:25:17;14.85;;;10.70;;
52043;SDS011;38053;53.100;6.078;2023-04-01T03:27:43;15.93;;;10.80;;
52043;SDS011;38053;53.100;6.078;2023-04-01T03:30:10;17.02;;;10.75;;
52043;SDS011;38053;53.100;6.078;2023-04-01T03:32:37;17.02;;;11.82;;
52043;SDS011;38053;53.100;6.078;2023-04-01T03:35:03;14.77;;;10.98;;
52043;SDS011;38053;53.100;6.078;2023-04-01T03:37:33;15.48;;;11.50;;
52043;SDS011;38053;53.100;6.078;2023-04-01T03:39:58;16.85;;;11.38;;
52043;SDS011;38053;53.100;6.078;2023-04-01T03:42:24;15.27;;;11.38;;
52043;SDS011;38053;53.100;6.078;2023-04-01T03:44:50;15.63;;;11.20;;
52043;SDS011;38053;53.100;6.078;2023-04-01T03:47:16;17.90;;;11.50;;
52043;SDS011;38053;53.100;6.078;2023-04-01T03:49:41;16.98;;;11.68;;
52043;SDS011;38053;53.100;6.078;2023-04-01T03:52:08;18.77;;;11.75;;
52043;SDS011;38053;53.100;6.078;2023-04-01T03:54:36;16.45;;;12.23;;
52043;SDS011;38053;53.100;6.078;2023-04-01T03:57:01;16.73;;;11.77;;
52043;SDS011;38053;53.100;6.078;2023-04-01T03:59:27;18.50;;;11.70;;
52043;SDS011;38053;53.100;6.078;2023-04-01T04:01:53;16.92;;;11.93;;
52043;SDS011;38053;53.100;6.078;2023-04-01T04:04:22;17.60;;;12.07;;
52043;SDS011;38053;53.100;6.078;2023-04-01T04:06:49;20.00;;;13.63;;
52043;SDS011;38053;53.100;6.078;2023-04-01T04:09:16;18.90;;;13.05;;
52043;SDS011;38053;53.100;6.078;2023-04-01T04:11:45;16.77;;;11.88;;
52043;SDS011;38053;53.100;6.078;2023-04-01T04:14:13;17.60;;;12.63;;
52043;SDS011;38053;53.100;6.078;2023-04-01T04:16:40;19.00;;;14.38;;
52043;SDS011;38053;53.100;6.078;2023-04-01T04:19:07;19.50;;;13.00;;
52043;SDS011;38053;53.100;6.078;2023-04-01T04:21:33;21.48;;;12.80;;
52043;SDS011;38053;53.100;6.078;2023-04-01T04:23:59;21.55;;;12.02;;
52043;SDS011;38053;53.100;6.078;2023-04-01T04:26:26;17.27;;;11.70;;
52043;SDS011;38053;53.100;6.078;2023-04-01T04:28:53;17.83;;;12.75;;
52043;SDS011;38053;53.100;6.078;2023-04-01T04:31:23;20.75;;;13.75;;
52043;SDS011;38053;53.100;6.078;2023-04-01T04:34:00;21.30;;;14.70;;
52043;SDS011;38053;53.100;6.078;2023-04-01T04:36:26;19.15;;;13.60;;
52043;SDS011;38053;53.100;6.078;2023-04-01T04:38:55;20.60;;;13.73;;
52043;SDS011;38053;53.100;6.078;2023-04-01T04:41:26;20.52;;;13.20;;
52043;SDS011;38053;53.100;6.078;2023-04-01T04:43:55;22.85;;;14.13;;
52043;SDS011;38053;53.100;6.078;2023-04-01T04:46:22;19.95;;;13.35;;
52043;SDS011;38053;53.100;6.078;2023-04-01T04:48:48;21.80;;;14.57;;
52043;SDS011;38053;53.100;6.078;2023-04-01T04:51:15;23.10;;;15.10;;
52043;SDS011;38053;53.100;6.078;2023-04-01T04:53:42;22.45;;;14.90;;
52043;SDS011;38053;53.100;6.078;2023-04-01T04:56:10;20.73;;;14.90;;
52043;SDS011;38053;53.100;6.078;2023-04-01T04:58:38;21.08;;;13.90;;
52043;SDS011;38053;53.100;6.078;2023-04-01T05:01:08;19.73;;;14.88;;
52043;SDS011;38053;53.100;6.078;2023-04-01T05:03:37;23.80;;;15.13;;
52043;SDS011;38053;53.100;6.078;2023-04-01T05:06:03;26.45;;;17.17;;
52043;SDS011;38053;53.100;6.078;2023-04-01T05:08:30;23.70;;;16.73;;
52043;SDS011;38053;53.100;6.078;2023-04-01T05:10:56;23.48;;;15.77;;
52043;SDS011;38053;53.100;6.078;2023-04-01T05:13:21;31.38;;;17.42;;
52043;SDS011;38053;53.100;6.078;2023-04-01T05:15:50;23.35;;;16.80;;
52043;SDS011;38053;53.100;6.078;2023-04-01T05:18:16;25.50;;;17.85;;
52043;SDS011;38053;53.100;6.078;2023-04-01T05:20:49;24.45;;;17.05;;
52043;SDS011;38053;53.100;6.078;2023-04-01T05:23:16;24.80;;;16.13;;
52043;SDS011;38053;53.100;6.078;2023-04-01T05:25:43;29.13;;;18.40;;
52043;SDS011;38053;53.100;6.078;2023-04-01T05:28:10;28.60;;;17.77;;
52043;SDS011;38053;53.100;6.078;2023-04-01T05:30:36;34.53;;;18.15;;
52043;SDS011;38053;53.100;6.078;2023-04-01T05:33:06;24.40;;;16.57;;
52043;SDS011;38053;53.100;6.078;2023-04-01T05:35:32;26.38;;;16.92;;
52043;SDS011;38053;53.100;6.078;2023-04-01T05:37:58;28.30;;;18.27;;
52043;SDS011;38053;53.100;6.078;2023-04-01T05:40:24;26.23;;;17.08;;
52043;SDS011;38053;53.100;6.078;2023-04-01T05:42:49;27.30;;;17.33;;
52043;SDS011;38053;53.100;6.078;2023-04-01T05:45:15;30.08;;;17.13;;
52043;SDS011;38053;53.100;6.078;2023-04-01T05:47:41;30.00;;;17.58;;
52043;SDS011;38053;53.100;6.078;2023-04-01T05:50:10;31.33;;;18.38;;
52043;SDS011;38053;53.100;6.078;2023-04-01T05:52:36;27.08;;;17.88;;
52043;SDS011;38053;53.100;6.078;2023-04-01T05:55:03;27.63;;;19.45;;
52043;SDS011;38053;53.100;6.078;2023-04-01T05:57:29;30.15;;;18.60;;
52043;SDS011;38053;53.100;6.078;2023-04-01T05:59:55;32.65;;;19.23;;
52043;SDS011;38053;53.100;6.078;2023-04-01T06:02:21;33.40;;;19.20;;
52043;SDS011;38053;53.100;6.078;2023-04-01T06:04:47;29.52;;;19.77;;
52043;SDS011;38053;53.100;6.078;2023-04-01T06:07:15;29.80;;;18.15;;
52043;SDS011;38053;53.100;6.078;2023-04-01T06:09:42;30.27;;;19.58;;
52043;SDS011;38053;53.100;6.078;2023-04-01T06:23:31;33.10;;;19.83;;
52043;SDS011;38053;53.100;6.078;2023-04-01T06:26:12;30.15;;;19.50;;
52043;SDS011;38053;53.100;6.078;2023-04-01T06:37:29;26.60;;;16.95;;
52043;SDS011;38053;53.100;6.078;2023-04-01T06:45:50;24.65;;;15.07;;
52043;SDS011;38053;53.100;6.078;2023-04-01T06:53:55;25.00;;;15.50;;
52043;SDS011;38053;53.100;6.078;2023-04-01T06:56:27;20.10;;;13.93;;
52043;SDS011;38053;53.100;6.078;2023-04-01T07:01:39;20.98;;;13.90;;
52043;SDS011;38053;53.100;6.078;2023-04-01T07:04:11;21.02;;;13.70;;
52043;SDS011;38053;53.100;6.078;2023-04-01T07:06:59;19.42;;;11.60;;
52043;SDS011;38053;53.100;6.078;2023-04-01T07:09:37;20.08;;;12.68;;
52043;SDS011;38053;53.100;6.078;2023-04-01T07:14:55;16.20;;;10.18;;
52043;SDS011;38053;53.100;6.078;2023-04-01T07:17:27;17.45;;;11.63;;
52043;SDS011;38053;53.100;6.078;2023-04-01T07:22:40;14.45;;;10.20;;
52043;SDS011;38053;53.100;6.078;2023-04-01T07:25:13;20.95;;;9.73;;
52043;SDS011;38053;53.100;6.078;2023-04-01T07:27:45;17.00;;;11.45;;
52043;SDS011;38053;53.100;6.078;2023-04-01T07:30:15;21.25;;;11.93;;
52043;SDS011;38053;53.100;6.078;2023-04-01T07:32:55;17.20;;;11.45;;
52043;SDS011;38053;53.100;6.078;2023-04-01T07:41:32;19.92;;;14.73;;
52043;SDS011;38053;53.100;6.078;2023-04-01T07:44:14;20.15;;;14.38;;
52043;SDS011;38053;53.100;6.078;2023-04-01T07:47:11;22.88;;;15.57;;
52043;SDS011;38053;53.100;6.078;2023-04-01T07:49:47;26.02;;;16.33;;
52043;SDS011;38053;53.100;6.078;2023-04-01T07:52:24;27.58;;;16.58;;
52043;SDS011;38053;53.100;6.078;2023-04-01T07:55:16;30.27;;;18.88;;
52043;SDS011;38053;53.100;6.078;2023-04-01T07:58:10;23.83;;;16.48;;
52043;SDS011;38053;53.100;6.078;2023-04-01T08:06:26;26.65;;;19.02;;
52043;SDS011;38053;53.100;6.078;2023-04-01T08:15:10;25.63;;;18.05;;
52043;SDS011;38053;53.100;6.078;2023-04-01T08:20:41;22.27;;;17.30;;
52043;SDS011;38053;53.100;6.078;2023-04-01T08:31:17;24.27;;;16.23;;
52043;SDS011;38053;53.100;6.078;2023-04-01T08:33:53;21.13;;;16.02;;
52043;SDS011;38053;53.100;6.078;2023-04-01T08:36:32;18.27;;;14.73;;
52043;SDS011;38053;53.100;6.078;2023-04-01T08:44:51;21.30;;;15.40;;
52043;SDS011;38053;53.100;6.078;2023-04-01T08:53:24;19.88;;;15.10;;
52043;SDS011;38053;53.100;6.078;2023-04-01T09:37:51;12.30;;;8.90;;
52043;SDS011;38053;53.100;6.078;2023-04-01T09:40:48;12.05;;;9.10;;
52043;SDS011;38053;53.100;6.078;2023-04-01T09:43:33;12.02;;;8.13;;
52043;SDS011;38053;53.100;6.078;2023-04-01T09:46:15;12.18;;;9.23;;
52043;SDS011;38053;53.100;6.078;2023-04-01T09:51:39;11.13;;;8.07;;
52043;SDS011;38053;53.100;6.078;2023-04-01T10:25:42;10.50;;;6.30;;
52043;SDS011;38053;53.100;6.078;2023-04-01T10:28:38;8.90;;;5.35;;
52043;SDS011;38053;53.100;6.078;2023-04-01T10:40:24;10.52;;;5.72;;
52043;SDS011;38053;53.100;6.078;2023-04-01T11:02:50;8.77;;;5.60;;
52043;SDS011;38053;53.100;6.078;2023-04-01T11:11:02;7.55;;;5.10;;
52043;SDS011;38053;53.100;6.078;2023-04-01T12:01:25;7.63;;;2.63;;
52043;SDS011;38053;53.100;6.078;2023-04-01T12:09:58;6.70;;;3.03;;
52043;SDS011;38053;53.100;6.078;2023-04-01T12:15:29;5.27;;;3.37;;
52043;SDS011;38053;53.100;6.078;2023-04-01T12:18:15;5.50;;;2.75;;
52043;SDS011;38053;53.100;6.078;2023-04-01T12:23:34;4.03;;;2.03;;
52043;SDS011;38053;53.100;6.078;2023-04-01T12:31:41;5.97;;;2.65;;
52043;SDS011;38053;53.100;6.078;2023-04-01T12:39:59;7.53;;;2.40;;
52043;SDS011;38053;53.100;6.078;2023-04-01T12:42:41;4.90;;;2.83;;
52043;SDS011;38053;53.100;6.078;2023-04-01T12:48:00;8.15;;;3.05;;
52043;SDS011;38053;53.100;6.078;2023-04-01T12:50:58;7.28;;;4.07;;
52043;SDS011;38053;53.100;6.078;2023-04-01T12:53:50;5.57;;;3.25;;
52043;SDS011;38053;53.100;6.078;2023-04-01T12:59:55;5.22;;;2.55;;
52043;SDS011;38053;53.100;6.078;2023-04-01T13:03:00;4.28;;;2.55;;
52043;SDS011;38053;53.100;6.078;2023-04-01T13:14:50;6.68;;;3.08;;
52043;SDS011;38053;53.100;6.078;2023-04-01T13:28:56;4.22;;;2.75;;
52043;SDS011;38053;53.100;6.078;2023-04-01T13:34:27;4.22;;;2.22;;
52043;SDS011;38053;53.100;6.078;2023-04-01T13:42:49;5.05;;;2.75;;
52043;SDS011;38053;53.100;6.078;2023-04-01T13:45:55;4.70;;;2.65;;
52043;SDS011;38053;53.100;6.078;2023-04-01T13:48:31;3.40;;;2.20;;
52043;SDS011;38053;53.100;6.078;2023-04-01T13:53:49;5.28;;;2.45;;
52043;SDS011;38053;53.100;6.078;2023-04-01T14:01:42;5.28;;;2.60;;
52043;SDS011;38053;53.100;6.078;2023-04-01T14:09:28;4.88;;;2.58;;
52043;SDS011;38053;53.100;6.078;2023-04-01T14:56:48;4.22;;;1.60;;
52043;SDS011;38053;53.100;6.078;2023-04-01T15:02:09;4.88;;;2.10;;
52043;SDS011;38053;53.100;6.078;2023-04-01T15:04:58;4.03;;;1.55;;
52043;SDS011;38053;53.100;6.078;2023-04-01T15:13:32;2.92;;;1.42;;
52043;SDS011;38053;53.100;6.078;2023-04-01T15:25:09;5.38;;;3.67;;
52043;SDS011;38053;53.100;6.078;2023-04-01T15:44:32;5.13;;;3.03;;
52043;SDS011;38053;53.100;6.078;2023-04-01T15:52:58;6.25;;;3.10;;
52043;SDS011;38053;53.100;6.078;2023-04-01T15:55:50;6.07;;;2.20;;
52043;SDS011;38053;53.100;6.078;2023-04-01T16:04:14;6.72;;;2.58;;
52043;SDS011;38053;53.100;6.078;2023-04-01T16:06:58;6.15;;;3.08;;
52043;SDS011;38053;53.100;6.078;2023-04-01T16:09:34;7.68;;;3.63;;
52043;SDS011;38053;53.100;6.078;2023-04-01T16:23:47;9.63;;;3.88;;
52043;SDS011;38053;53.100;6.078;2023-04-01T16:26:38;12.88;;;4.22;;
52043;SDS011;38053;53.100;6.078;2023-04-01T16:29:22;12.20;;;4.50;;
52043;SDS011;38053;53.100;6.078;2023-04-01T16:37:45;14.90;;;6.70;;
52043;SDS011;38053;53.100;6.078;2023-04-01T16:51:25;10.45;;;4.40;;
52043;SDS011;38053;53.100;6.078;2023-04-01T16:54:02;7.65;;;3.67;;
52043;SDS011;38053;53.100;6.078;2023-04-01T16:56:54;12.38;;;4.88;;
52043;SDS011;38053;53.100;6.078;2023-04-01T16:59:28;7.55;;;4.22;;
52043;SDS011;38053;53.100;6.078;2023-04-01T17:04:34;9.38;;;5.00;;
52043;SDS011;38053;53.100;6.078;2023-04-01T17:13:18;16.05;;;6.43;;
52043;SDS011;38053;53.100;6.078;2023-04-01T17:16:19;9.40;;;5.60;;
52043;SDS011;38053;53.100;6.078;2023-04-01T17:21:38;14.82;;;5.32;;
52043;SDS011;38053;53.100;6.078;2023-04-01T17:32:59;15.70;;;6.13;;
52043;SDS011;38053;53.100;6.078;2023-04-01T17:38:56;13.00;;;6.93;;
52043;SDS011;38053;53.100;6.078;2023-04-01T17:49:44;21.17;;;7.63;;
52043;SDS011;38053;53.100;6.078;2023-04-01T17:57:54;19.48;;;7.50;;
52043;SDS011;38053;53.100;6.078;2023-04-01T18:05:47;22.42;;;6.53;;
52043;SDS011;38053;53.100;6.078;2023-04-01T18:11:27;14.80;;;6.13;;
52043;SDS011;38053;53.100;6.078;2023-04-01T18:17:13;15.57;;;7.18;;
52043;SDS011;38053;53.100;6.078;2023-04-01T18:25:52;17.20;;;7.10;;
52043;SDS011;38053;53.100;6.078;2023-04-01T18:30:34;15.73;;;6.65;;
52043;SDS011;38053;53.100;6.078;2023-04-01T18:38:39;15.10;;;6.65;;
52043;SDS011;38053;53.100;6.078;2023-04-01T18:43:46;14.38;;;7.40;;
52043;SDS011;38053;53.100;6.078;2023-04-01T18:46:33;11.57;;;6.25;;
52043;SDS011;38053;53.100;6.078;2023-04-01T18:49:21;11.00;;;5.75;;
52043;SDS011;38053;53.100;6.078;2023-04-01T18:57:46;11.60;;;5.72;;
52043;SDS011;38053;53.100;6.078;2023-04-01T19:00:36;13.48;;;6.47;;
52043;SDS011;38053;53.100;6.078;2023-04-01T19:05:47;20.35;;;7.38;;
52043;SDS011;38053;53.100;6.078;2023-04-01T19:08:19;19.23;;;7.22;;
52043;SDS011;38053;53.100;6.078;2023-04-01T19:13:22;14.05;;;7.03;;
52043;SDS011;38053;53.100;6.078;2023-04-01T19:16:04;14.48;;;5.90;;
52043;SDS011;38053;53.100;6.078;2023-04-01T19:19:08;13.60;;;6.90;;
52043;SDS011;38053;53.100;6.078;2023-04-01T19:21:58;14.02;;;6.47;;
52043;SDS011;38053;53.100;6.078;2023-04-01T19:27:41;15.13;;;6.20;;
52043;SDS011;38053;53.100;6.078;2023-04-01T19:40:55;15.50;;;6.53;;
52043;SDS011;38053;53.100;6.078;2023-04-01T19:55:00;12.32;;;6.25;;
52043;SDS011;38053;53.100;6.078;2023-04-01T19:57:41;14.07;;;7.70;;
52043;SDS011;38053;53.100;6.078;2023-04-01T20:05:39;14.13;;;7.32;;
52043;SDS011;38053;53.100;6.078;2023-04-01T20:20:17;16.38;;;7.15;;
52043;SDS011;38053;53.100;6.078;2023-04-01T20:40:41;9.55;;;5.28;;
52043;SDS011;38053;53.100;6.078;2023-04-01T20:43:38;12.82;;;5.72;;
52043;SDS011;38053;53.100;6.078;2023-04-01T20:54:41;13.63;;;5.63;;
52043;SDS011;38053;53.100;6.078;2023-04-01T21:00:45;13.25;;;5.10;;
52043;SDS011;38053;53.100;6.078;2023-04-01T21:06:41;24.13;;;5.45;;
52043;SDS011;38053;53.100;6.078;2023-04-01T21:09:41;13.52;;;5.68;;
52043;SDS011;38053;53.100;6.078;2023-04-01T21:22:58;13.40;;;5.05;;
52043;SDS011;38053;53.100;6.078;2023-04-01T21:31:05;16.33;;;5.72;;
52043;SDS011;38053;53.100;6.078;2023-04-01T21:33:49;13.40;;;5.68;;
52043;SDS011;38053;53.100;6.078;2023-04-01T21:36:52;14.65;;;6.68;;
52043;SDS011;38053;53.100;6.078;2023-04-01T21:55:14;10.55;;;4.72;;
52043;SDS011;38053;53.100;6.078;2023-04-01T22:06:50;10.15;;;5.25;;
52043;SDS011;38053;53.100;6.078;2023-04-01T22:12:14;9.43;;;4.20;;
52043;SDS011;38053;53.100;6.078;2023-04-01T22:17:45;9.43;;;4.60;;
52043;SDS011;38053;53.100;6.078;2023-04-01T22:25:42;10.10;;;5.35;;
52043;SDS011;38053;53.100;6.078;2023-04-01T22:28:16;9.38;;;4.60;;
52043;SDS011;38053;53.100;6.078;2023-04-01T22:30:52;12.73;;;5.15;;
52043;SDS011;38053;53.100;6.078;2023-04-01T22:47:40;11.82;;;5.57;;
52043;SDS011;38053;53.100;6.078;2023-04-01T22:50:20;18.25;;;5.63;;
52043;SDS011;38053;53.100;6.078;2023-04-01T22:53:03;17.08;;;7.10;;
52043;SDS011;38053;53.100;6.078;2023-04-01T22:55:40;14.65;;;4.90;;
52043;SDS011;38053;53.100;6.078;2023-04-01T22:58:10;11.27;;;4.53;;
52043;SDS011;38053;53.100;6.078;2023-04-01T23:00:49;14.23;;;4.75;;
52043;SDS011;38053;53.100;6.078;2023-04-01T23:05:54;14.68;;;5.47;;
52043;SDS011;38053;53.100;6.078;2023-04-01T23:11:16;16.75;;;4.65;;
52043;SDS011;38053;53.100;6.078;2023-04-01T23:16:19;16.33;;;4.60;;
52043;SDS011;38053;53.100;6.078;2023-04-01T23:19:04;10.13;;;4.40;;
52043;SDS011;38053;53.100;6.078;2023-04-01T23:21:54;11.27;;;3.80;;
52043;SDS011;38053;53.100;6.078;2023-04-01T23:24:55;9.57;;;3.50;;
52043;SDS011;38053;53.100;6.078;2023-04-01T23:27:40;15.30;;;4.38;;
52043;SDS011;38053;53.100;6.078;2023-04-01T23:35:53;9.10;;;4.38;;
52043;SDS011;38053;53.100;6.078;2023-04-01T23:38:30;14.25;;;4.93;;
52043;SDS011;38053;53.100;6.078;2023-04-01T23:40:57;12.10;;;4.18;;
52043;SDS011;38053;53.100;6.078;2023-04-01T23:43:28;10.23;;;3.80;;
52043;SDS011;38053;53.100;6.078;2023-04-01T23:45:56;9.00;;;3.33;;
52043;SDS011;38053;53.100;6.078;2023-04-01T23:48:43;10.48;;;3.58;;
52043;SDS011;38053;53.100;6.078;2023-04-01T23:51:17;9.85;;;3.78;;
52043;SDS011;38053;53.100;6.078;2023-04-01T23:53:54;10.15;;;3.65;;
52043;SDS011;38053;53.100;6.078;2023-04-01T23:56:38;15.73;;;3.40;;
52043;SDS011;38053;53.100;6.078;2023-04-01T23:59:16;15.27;;;3.83;;
